Time;durP1;ratioP1;P1;durP2;ratioP2;P2;SDS_P1;SDS_P2;PMS_P1;PMS_P2;Temp;Humidity;BMP_temperature;BMP_pressure;BME280_temperature;BME280_humidity;BME280_pressure;Samples;Min_cycle;Max_cycle;Signal;HPM_P1;HPM_P2
2021/04/23 00:00:55;;;;;;;10.98;3.05;;;;;;;5.73;65.06;97221.75;4947723;28;20250;-74
2021/04/23 00:03:27;;;;;;;10.57;3.38;;;;;;;5.66;66.03;97228.00;4941530;28;20245;-71
2021/04/23 00:05:57;;;;;;;11.77;3.72;;;;;;;5.74;65.65;97223.47;4937246;28;20639;-71
2021/04/23 00:08:24;;;;;;;11.48;3.00;;;;;;;5.71;65.74;97229.56;4941071;28;20183;-71
2021/04/23 00:10:53;;;;;;;8.48;3.72;;;;;;;5.62;66.00;97231.59;4939191;28;20222;-70
2021/04/23 00:13:20;;;;;;;10.88;4.07;;;;;;;5.61;66.35;97232.50;4942317;28;20193;-73
2021/04/23 00:15:49;;;;;;;9.07;3.28;;;;;;;5.56;66.86;97231.78;4944664;28;20505;-72
2021/04/23 00:18:16;;;;;;;8.48;3.40;;;;;;;5.59;66.74;97234.25;4935142;28;20746;-71
2021/04/23 00:20:44;;;;;;;11.98;3.20;;;;;;;5.58;66.93;97237.75;4943841;28;20336;-71
2021/04/23 00:23:13;;;;;;;14.85;3.60;;;;;;;5.58;66.46;97242.91;4945423;28;20202;-70
2021/04/23 00:25:43;;;;;;;12.60;4.10;;;;;;;5.59;66.27;97236.84;4951665;28;20203;-72
2021/04/23 00:28:12;;;;;;;8.35;2.92;;;;;;;5.52;66.70;97253.47;4944648;28;20198;-71
2021/04/23 00:30:42;;;;;;;12.45;3.85;;;;;;;5.44;66.52;97245.09;4943240;28;20203;-70
2021/04/23 00:33:11;;;;;;;15.38;3.08;;;;;;;5.34;66.25;97238.53;4942073;28;20198;-70
2021/04/23 00:35:41;;;;;;;8.77;3.30;;;;;;;5.28;65.97;97238.72;4947589;28;20221;-71
2021/04/23 00:38:10;;;;;;;11.75;3.53;;;;;;;5.24;66.02;97245.72;4942200;28;20597;-71
2021/04/23 00:40:41;;;;;;;17.30;3.08;;;;;;;5.23;65.66;97245.78;4941955;28;20822;-72
2021/04/23 00:43:09;;;;;;;13.43;2.97;;;;;;;5.20;66.90;97245.84;4945787;28;20195;-71
2021/04/23 00:45:37;;;;;;;15.65;3.58;;;;;;;5.24;66.14;97232.81;4944718;28;20245;-70
2021/04/23 00:48:07;;;;;;;7.13;2.80;;;;;;;5.28;66.13;97238.72;4947008;28;20583;-71
2021/04/23 00:50:40;;;;;;;12.35;3.72;;;;;;;5.31;65.98;97238.63;4936050;28;20238;-71
2021/04/23 00:53:08;;;;;;;8.40;3.15;;;;;;;5.25;66.44;97231.09;4945018;28;20518;-71
2021/04/23 00:55:36;;;;;;;7.72;3.03;;;;;;;5.34;66.68;97239.38;4944251;28;20246;-72
2021/04/23 00:58:06;;;;;;;8.70;3.00;;;;;;;5.34;66.21;97233.38;4945921;28;20194;-72
2021/04/23 01:00:33;;;;;;;5.90;2.80;;;;;;;5.35;66.80;97238.50;4940209;28;20211;-72
2021/04/23 01:03:00;;;;;;;11.07;2.90;;;;;;;5.30;66.22;97231.78;4948197;28;20594;-71
2021/04/23 01:05:31;;;;;;;8.45;3.30;;;;;;;5.22;66.59;97228.56;4940732;28;20618;-71
2021/04/23 01:07:59;;;;;;;8.50;2.42;;;;;;;5.17;66.99;97230.47;4938997;28;20582;-70
2021/04/23 01:10:28;;;;;;;10.40;3.00;;;;;;;5.04;67.08;97236.91;4942019;28;20780;-70
2021/04/23 01:12:55;;;;;;;10.10;2.50;;;;;;;4.93;67.55;97233.78;4944913;28;20194;-71
2021/04/23 01:15:23;;;;;;;6.07;2.92;;;;;;;4.95;68.29;97230.28;4941405;28;20562;-72
2021/04/23 01:17:50;;;;;;;10.52;2.70;;;;;;;4.81;68.08;97232.41;4941085;28;20493;-72
2021/04/23 01:20:20;;;;;;;12.85;3.00;;;;;;;4.70;68.70;97225.88;4944449;28;20556;-71
2021/04/23 01:22:48;;;;;;;6.32;2.72;;;;;;;4.71;68.16;97228.41;4943975;28;20582;-71
2021/04/23 01:25:17;;;;;;;9.32;3.40;;;;;;;4.70;68.34;97228.44;4940354;28;20281;-70
2021/04/23 01:27:44;;;;;;;10.10;3.20;;;;;;;4.69;68.41;97226.78;4938175;28;20306;-72
2021/04/23 01:30:16;;;;;;;9.90;3.17;;;;;;;4.63;68.69;97221.78;4917171;29;20256;-71
2021/04/23 01:32:43;;;;;;;5.47;2.67;;;;;;;4.68;68.85;97230.25;4927796;28;20576;-71
2021/04/23 01:35:15;;;;;;;5.13;2.70;;;;;;;4.64;68.91;97223.50;4949442;28;20315;-71
2021/04/23 01:37:43;;;;;;;12.88;3.45;;;;;;;4.69;69.13;97226.78;4936419;28;20693;-72
2021/04/23 01:40:13;;;;;;;10.25;3.25;;;;;;;4.68;68.82;97225.94;4941196;28;20229;-70
2021/04/23 01:42:43;;;;;;;11.25;3.30;;;;;;;4.73;68.99;97230.97;4940799;28;20203;-71
2021/04/23 01:45:12;;;;;;;8.35;3.25;;;;;;;4.64;68.67;97233.81;4939976;28;20752;-70
2021/04/23 01:47:39;;;;;;;9.35;3.00;;;;;;;4.47;69.80;97236.00;4956231;28;20197;-71
2021/04/23 01:50:09;;;;;;;8.85;2.65;;;;;;;4.41;70.03;97231.00;4939731;28;20230;-71
2021/04/23 01:52:41;;;;;;;9.95;3.00;;;;;;;4.39;69.79;97243.97;4940647;28;20206;-71
2021/04/23 01:55:12;;;;;;;9.50;2.50;;;;;;;4.39;69.50;97245.69;4943191;28;20889;-71
2021/04/23 01:57:39;;;;;;;12.23;2.65;;;;;;;4.19;69.66;97238.50;4943585;28;20634;-72
2021/04/23 02:00:15;;;;;;;9.07;3.58;;;;;;;4.20;70.12;97247.06;4941668;28;20367;-71
2021/04/23 02:02:44;;;;;;;7.40;2.80;;;;;;;4.17;70.16;97252.28;4940398;28;20661;-71
2021/04/23 02:05:13;;;;;;;8.65;3.10;;;;;;;4.20;70.27;97250.50;4939111;28;20223;-71
2021/04/23 02:07:41;;;;;;;8.02;2.90;;;;;;;4.21;70.25;97253.91;4939545;28;20207;-72
2021/04/23 02:10:12;;;;;;;11.73;3.33;;;;;;;4.15;70.07;97244.59;4941335;28;20817;-71
2021/04/23 02:12:39;;;;;;;11.80;3.25;;;;;;;4.16;69.78;97248.91;4958363;28;20227;-71
2021/04/23 02:15:11;;;;;;;9.35;3.30;;;;;;;4.03;70.31;97247.53;4938562;28;20222;-71
2021/04/23 02:17:38;;;;;;;6.43;3.60;;;;;;;4.01;70.62;97262.13;4939863;28;20195;-70
2021/04/23 02:20:11;;;;;;;12.80;3.85;;;;;;;4.00;70.62;97255.31;4946886;28;20281;-74
2021/04/23 02:22:42;;;;;;;7.65;2.65;;;;;;;4.03;70.32;97254.38;4941265;28;20400;-71
2021/04/23 02:25:09;;;;;;;6.88;2.85;;;;;;;3.94;70.72;97264.94;4937338;28;20221;-71
2021/04/23 02:27:37;;;;;;;6.40;2.60;;;;;;;3.88;70.48;97262.50;4943143;28;20578;-71
2021/04/23 02:30:07;;;;;;;18.48;3.75;;;;;;;3.75;71.51;97268.84;4917184;28;20754;-71
2021/04/23 02:32:34;;;;;;;6.20;2.72;;;;;;;3.76;71.44;97273.09;4933344;28;20191;-70
2021/04/23 02:35:01;;;;;;;13.57;2.78;;;;;;;3.85;71.46;97270.31;4934826;28;20254;-71
2021/04/23 02:37:28;;;;;;;21.00;3.42;;;;;;;3.82;71.27;97270.38;4940682;28;20401;-70
2021/04/23 02:39:56;;;;;;;5.72;2.95;;;;;;;3.86;70.95;97271.16;4935719;28;20723;-71
2021/04/23 02:42:23;;;;;;;6.93;3.05;;;;;;;3.73;71.64;97270.63;4939237;28;20281;-71
2021/04/23 02:44:51;;;;;;;17.17;3.10;;;;;;;3.77;71.65;97267.09;4941039;28;20238;-70
2021/04/23 02:47:18;;;;;;;14.27;3.53;;;;;;;3.82;71.16;97270.38;4945249;28;20585;-70
2021/04/23 02:49:46;;;;;;;14.43;2.95;;;;;;;3.63;71.75;97274.31;4916328;28;20564;-70
2021/04/23 02:52:12;;;;;;;14.10;3.08;;;;;;;3.64;72.19;97272.56;4948669;28;20638;-71
2021/04/23 02:54:39;;;;;;;6.97;3.40;;;;;;;3.65;72.28;97272.53;4945960;28;20541;-70
2021/04/23 02:57:06;;;;;;;10.43;2.83;;;;;;;3.66;72.19;97274.22;4954819;28;20619;-70
2021/04/23 02:59:33;;;;;;;6.20;3.13;;;;;;;3.64;71.75;97273.41;4941425;28;20608;-70
2021/04/23 03:02:02;;;;;;;6.57;2.50;;;;;;;3.54;72.60;97277.06;4941789;28;20922;-70
2021/04/23 03:04:29;;;;;;;8.82;3.00;;;;;;;3.51;72.45;97274.59;4943100;28;20703;-71
2021/04/23 03:06:56;;;;;;;15.65;3.70;;;;;;;3.58;72.11;97275.28;4938913;28;20665;-70
2021/04/23 03:09:23;;;;;;;13.48;2.70;;;;;;;3.65;71.89;97277.69;4941340;28;20675;-70
2021/04/23 03:11:51;;;;;;;6.45;2.55;;;;;;;3.71;71.42;97280.09;4942448;28;20301;-71
2021/04/23 03:14:17;;;;;;;13.80;2.97;;;;;;;3.58;71.83;97281.28;4942870;28;20285;-70
2021/04/23 03:16:45;;;;;;;10.68;3.13;;;;;;;3.50;72.25;97282.31;4924948;28;20586;-70
2021/04/23 03:19:15;;;;;;;6.28;3.15;;;;;;;3.48;71.88;97290.09;4947282;28;20662;-71
2021/04/23 03:21:42;;;;;;;8.10;3.50;;;;;;;3.50;72.09;97288.34;4946195;28;20511;-70
2021/04/23 03:24:10;;;;;;;15.38;3.33;;;;;;;3.58;71.89;97291.56;4941095;28;20240;-72
2021/04/23 03:26:39;;;;;;;8.27;3.20;;;;;;;3.46;72.45;97291.84;4940028;28;20187;-70
2021/04/23 03:29:07;;;;;;;9.98;3.30;;;;;;;3.45;72.68;97292.72;4943872;28;20223;-71
2021/04/23 03:31:35;;;;;;;6.88;2.53;;;;;;;3.45;72.48;97290.16;4942563;28;20664;-71
2021/04/23 03:34:03;;;;;;;9.77;2.58;;;;;;;3.41;72.60;97288.56;4947209;28;20289;-70
2021/04/23 03:36:32;;;;;;;12.20;2.72;;;;;;;3.29;72.77;97282.81;4940413;28;20183;-70
2021/04/23 03:38:59;;;;;;;7.05;3.05;;;;;;;3.37;73.09;97281.78;4948890;28;20283;-71
2021/04/23 03:41:29;;;;;;;14.45;3.65;;;;;;;3.37;72.61;97286.91;4941342;28;20193;-70
2021/04/23 03:43:58;;;;;;;12.25;3.25;;;;;;;3.32;72.61;97288.75;4941597;28;20246;-72
2021/04/23 03:46:25;;;;;;;12.13;3.00;;;;;;;3.41;72.45;97292.84;4942432;28;20643;-70
2021/04/23 03:48:53;;;;;;;9.43;2.95;;;;;;;3.44;72.24;97298.75;4946992;28;20580;-71
2021/04/23 03:51:21;;;;;;;7.20;2.75;;;;;;;3.50;72.17;97293.47;4947927;28;20735;-70
2021/04/23 03:53:50;;;;;;;10.93;3.78;;;;;;;3.40;72.18;97297.16;4943110;28;20234;-71
2021/04/23 03:56:18;;;;;;;16.52;3.03;;;;;;;3.39;72.48;97298.00;4918899;28;20187;-70
2021/04/23 03:58:46;;;;;;;15.20;3.72;;;;;;;3.39;72.91;97294.63;4931289;28;20214;-70
2021/04/23 04:01:15;;;;;;;6.55;2.65;;;;;;;3.32;72.60;97285.34;4939432;28;20658;-71
2021/04/23 04:03:48;;;;;;;12.98;3.63;;;;;;;3.28;73.07;97286.28;4937998;28;20633;-70
2021/04/23 04:06:15;;;;;;;10.40;2.72;;;;;;;3.28;73.25;97302.56;4946670;28;20190;-70
2021/04/23 04:08:42;;;;;;;12.00;4.00;;;;;;;3.28;73.18;97299.13;4941706;28;20622;-71
2021/04/23 04:11:11;;;;;;;12.23;2.97;;;;;;;3.25;72.83;97301.78;4949690;28;20210;-70
2021/04/23 04:13:38;;;;;;;8.80;2.90;;;;;;;3.32;72.83;97304.16;4953015;28;20658;-69
2021/04/23 04:16:06;;;;;;;9.48;3.40;;;;;;;3.35;72.31;97305.84;4938157;28;20576;-71
2021/04/23 04:18:34;;;;;;;6.93;2.95;;;;;;;3.34;73.30;97311.88;4949871;28;20215;-72
2021/04/23 04:21:01;;;;;;;11.30;2.83;;;;;;;3.24;73.18;97306.06;4948244;28;20584;-70
2021/04/23 04:23:28;;;;;;;8.93;3.22;;;;;;;3.24;73.13;97306.06;4946708;28;20701;-70
2021/04/23 04:25:57;;;;;;;6.93;2.80;;;;;;;3.20;73.18;97314.75;4943762;28;20341;-71
2021/04/23 04:28:28;;;;;;;11.75;3.40;;;;;;;3.25;73.33;97310.38;4940646;28;20250;-71
2021/04/23 04:30:55;;;;;;;12.10;3.22;;;;;;;3.26;72.96;97314.63;4919942;28;20647;-72
2021/04/23 04:33:42;;;;;;;6.57;2.80;;;;;;;3.11;73.23;97307.25;4945114;28;20277;-71
2021/04/23 04:36:10;;;;;;;13.90;3.13;;;;;;;3.12;73.51;97314.06;4941437;28;20191;-71
2021/04/23 04:38:38;;;;;;;8.57;3.30;;;;;;;3.03;73.18;97314.25;4943616;28;20701;-71
2021/04/23 04:41:05;;;;;;;10.93;3.10;;;;;;;3.01;73.00;97317.75;4938034;28;20631;-72
2021/04/23 04:43:33;;;;;;;11.80;3.75;;;;;;;3.06;73.14;97319.34;4942156;28;20227;-72
2021/04/23 04:46:01;;;;;;;6.45;3.47;;;;;;;3.06;74.13;97326.19;4938558;28;20687;-71
2021/04/23 04:48:28;;;;;;;8.23;3.30;;;;;;;3.01;74.01;97322.91;4942622;28;20645;-71
2021/04/23 04:50:57;;;;;;;10.20;2.95;;;;;;;3.11;74.43;97325.25;4944676;28;20265;-69
2021/04/23 04:53:25;;;;;;;4.47;2.45;;;;;;;2.99;73.84;97328.06;4937900;28;20584;-70
2021/04/23 04:55:54;;;;;;;9.25;3.92;;;;;;;3.00;73.60;97327.19;4936757;28;20257;-70
2021/04/23 04:58:24;;;;;;;25.58;4.40;;;;;;;3.12;73.67;97336.34;4936357;28;20202;-71
2021/04/23 05:00:52;;;;;;;14.20;3.42;;;;;;;3.05;72.81;97325.38;4937677;28;20515;-70
2021/04/23 05:03:20;;;;;;;12.35;4.13;;;;;;;3.14;72.72;97330.31;4911872;28;20184;-70
2021/04/23 05:05:47;;;;;;;9.63;3.28;;;;;;;3.06;72.97;97345.06;4911680;28;20747;-71
2021/04/23 05:08:14;;;;;;;11.95;3.47;;;;;;;3.14;73.36;97334.59;4909282;28;20223;-71
2021/04/23 05:10:41;;;;;;;15.45;4.22;;;;;;;3.17;73.22;97334.53;4910751;29;20208;-70
2021/04/23 05:13:08;;;;;;;14.98;4.75;;;;;;;3.26;72.88;97340.34;4916265;28;20200;-70
2021/04/23 05:15:35;;;;;;;3.83;2.63;;;;;;;3.24;73.31;97331.78;4913539;29;20579;-70
2021/04/23 05:18:03;;;;;;;6.15;3.60;;;;;;;3.38;73.58;97345.19;4910603;29;20192;-70
2021/04/23 05:20:30;;;;;;;11.35;4.03;;;;;;;3.44;73.23;97349.38;4913337;29;20220;-70
2021/04/23 05:22:57;;;;;;;11.98;3.95;;;;;;;3.59;73.20;97349.88;4911532;29;20208;-71
2021/04/23 05:25:26;;;;;;;8.95;3.35;;;;;;;3.66;73.00;97354.00;4898097;29;20763;-71
2021/04/23 05:27:54;;;;;;;11.32;3.25;;;;;;;3.76;71.96;97355.47;4895463;29;20274;-72
2021/04/23 05:30:24;;;;;;;10.32;3.45;;;;;;;3.84;71.23;97360.44;4895128;29;20444;-72
2021/04/23 05:32:51;;;;;;;9.50;3.83;;;;;;;3.91;71.37;97364.56;4895953;29;20817;-71
2021/04/23 05:35:21;;;;;;;5.65;2.95;;;;;;;3.95;71.00;97359.31;4893094;29;20227;-70
2021/04/23 05:37:49;;;;;;;6.38;2.88;;;;;;;4.04;70.57;97365.09;4894333;29;20689;-70
2021/04/23 05:40:20;;;;;;;10.32;2.78;;;;;;;4.17;70.28;97370.78;4888878;29;20243;-70
2021/04/23 05:42:46;;;;;;;10.90;2.75;;;;;;;4.19;70.11;97366.44;4892882;29;20255;-71
2021/04/23 05:45:14;;;;;;;6.68;3.50;;;;;;;4.32;70.36;97370.41;4888765;29;20217;-71
2021/04/23 05:47:43;;;;;;;5.65;3.60;;;;;;;4.51;69.92;97376.78;4892268;29;20682;-70
2021/04/23 05:50:14;;;;;;;16.48;3.92;;;;;;;4.81;69.31;97373.41;4914538;29;20837;-68
2021/04/23 05:52:42;;;;;;;13.52;3.10;;;;;;;4.85;69.00;97375.00;4916177;29;20224;-71
2021/04/23 05:55:11;;;;;;;7.82;3.25;;;;;;;5.04;68.18;97376.19;4880351;29;20595;-71
2021/04/23 05:57:41;;;;;;;6.88;3.20;;;;;;;5.14;68.12;97375.88;4911391;29;20631;-73
2021/04/23 06:00:12;;;;;;;14.30;2.80;;;;;;;5.09;68.38;97379.50;4912949;29;20630;-71
2021/04/23 06:02:39;;;;;;;18.42;3.45;;;;;;;5.33;67.66;97382.22;4933146;28;20750;-71
2021/04/23 06:05:08;;;;;;;14.93;4.10;;;;;;;5.25;68.27;97386.72;4940397;28;20234;-70
2021/04/23 06:07:36;;;;;;;18.20;3.92;;;;;;;5.36;67.95;97384.69;4935274;28;20194;-71
2021/04/23 06:10:07;;;;;;;19.48;4.75;;;;;;;5.58;67.30;97387.47;4939129;28;20673;-70
2021/04/23 06:12:34;;;;;;;9.52;5.40;;;;;;;5.58;67.93;97393.50;4944045;28;20430;-70
2021/04/23 06:15:01;;;;;;;14.50;3.05;;;;;;;5.77;67.02;97376.59;4945523;28;20801;-70
2021/04/23 06:17:28;;;;;;;10.50;3.55;;;;;;;6.07;66.10;97393.75;4940268;28;20551;-71
2021/04/23 06:19:57;;;;;;;10.82;3.15;;;;;;;6.17;66.31;97391.69;4945475;28;20293;-71
2021/04/23 06:22:24;;;;;;;14.20;3.97;;;;;;;6.41;65.56;97394.31;4944482;28;20844;-71
2021/04/23 06:24:51;;;;;;;21.45;5.15;;;;;;;6.49;65.09;97392.31;4944411;28;20560;-72
2021/04/23 06:27:19;;;;;;;10.63;3.97;;;;;;;6.49;64.88;97396.66;4940896;28;20709;-70
2021/04/23 06:29:46;;;;;;;15.65;5.32;;;;;;;6.52;64.72;97406.91;4949678;28;20219;-71
2021/04/23 06:32:58;;;;;;;14.80;4.43;;;;;;;6.61;65.16;97396.25;4952349;28;20199;-72
2021/04/23 06:35:54;;;;;;;14.48;5.60;;;;;;;6.93;64.42;97403.78;4969229;28;20643;-70
2021/04/23 06:38:21;;;;;;;14.95;5.68;;;;;;;7.00;64.37;97405.25;4944796;28;20536;-71
2021/04/23 06:40:48;;;;;;;134.05;58.20;;;;;;;7.16;64.31;97403.78;4944185;28;20215;-70
2021/04/23 06:43:16;;;;;;;44.40;11.05;;;;;;;7.32;63.69;97403.19;4946751;28;20242;-69
2021/04/23 06:45:45;;;;;;;11.95;4.95;;;;;;;7.72;63.76;97405.16;4946749;28;20258;-71
2021/04/23 06:48:14;;;;;;;21.27;5.03;;;;;;;8.08;63.44;97406.34;4939386;28;20804;-70
2021/04/23 06:50:43;;;;;;;15.70;5.40;;;;;;;8.38;62.04;97407.75;4944463;28;20548;-71
2021/04/23 06:53:11;;;;;;;20.63;5.83;;;;;;;8.63;61.33;97407.50;4944503;28;20454;-69
2021/04/23 06:55:38;;;;;;;19.48;4.45;;;;;;;8.89;61.59;97399.50;4944232;28;20516;-70
2021/04/23 06:58:08;;;;;;;18.40;4.30;;;;;;;9.45;59.64;97404.81;4938884;28;20191;-70
2021/04/23 07:00:38;;;;;;;8.37;3.33;;;;;;;9.80;58.40;97397.09;4939901;28;20774;-70
2021/04/23 07:03:08;;;;;;;22.67;4.03;;;;;;;10.15;56.02;97408.47;4947515;28;20470;-70
2021/04/23 07:05:35;;;;;;;28.73;4.87;;;;;;;10.44;54.92;97406.19;4944596;28;20775;-71
2021/04/23 07:08:02;;;;;;;17.90;3.80;;;;;;;10.95;54.39;97403.63;4946122;28;20441;-71
2021/04/23 07:10:30;;;;;;;20.70;3.70;;;;;;;11.00;53.67;97400.78;4924543;28;20750;-71
2021/04/23 07:12:58;;;;;;;19.33;4.50;;;;;;;11.14;52.65;97404.38;4940389;28;20446;-71
2021/04/23 07:15:27;;;;;;;56.97;5.13;;;;;;;11.53;53.18;97410.13;4943761;28;20977;-73
2021/04/23 07:17:55;;;;;;;24.23;4.03;;;;;;;12.12;50.60;97402.56;4947368;28;20946;-70
2021/04/23 07:20:33;;;;;;;30.73;3.80;;;;;;;12.73;50.24;97395.56;4940577;28;20477;-69
2021/04/23 07:23:01;;;;;;;14.93;4.60;;;;;;;13.60;49.18;97406.00;4945000;28;20442;-71
2021/04/23 07:25:28;;;;;;;25.47;4.90;;;;;;;13.93;48.52;97409.19;4946242;28;20490;-73
2021/04/23 07:27:57;;;;;;;19.60;3.60;;;;;;;14.54;47.96;97409.63;4941083;28;20801;-72
2021/04/23 07:30:27;;;;;;;87.40;7.33;;;;;;;15.27;46.51;97416.94;4942787;28;20798;-69
2021/04/23 07:32:55;;;;;;;16.47;3.70;;;;;;;15.39;45.11;97406.50;4940181;28;20537;-70
2021/04/23 07:35:23;;;;;;;24.07;5.70;;;;;;;15.69;44.78;97408.81;4938528;28;20974;-70
2021/04/23 07:37:50;;;;;;;15.83;4.10;;;;;;;15.57;45.07;97404.41;4944374;28;20439;-70
2021/04/23 07:40:20;;;;;;;21.50;3.60;;;;;;;15.69;44.99;97406.19;4938871;28;20473;-71
2021/04/23 07:42:47;;;;;;;10.53;3.17;;;;;;;15.49;44.92;97406.69;4944878;28;20553;-72
2021/04/23 07:45:16;;;;;;;11.73;3.80;;;;;;;15.30;45.11;97408.84;4940039;28;20965;-71
2021/04/23 07:47:44;;;;;;;10.77;3.40;;;;;;;14.93;46.52;97404.38;4926219;28;20469;-72
2021/04/23 07:50:14;;;;;;;6.90;3.10;;;;;;;15.19;46.05;97406.13;4940582;28;20846;-69
2021/04/23 07:52:42;;;;;;;14.27;4.70;;;;;;;14.35;46.05;97407.34;4948099;28;20468;-70
2021/04/23 07:55:10;;;;;;;16.37;4.60;;;;;;;14.56;46.46;97405.97;4943157;28;20827;-69
2021/04/23 07:57:37;;;;;;;14.43;3.93;;;;;;;14.73;47.64;97399.63;4949712;28;20494;-71
2021/04/23 08:00:06;;;;;;;15.20;4.63;;;;;;;14.95;46.17;97405.16;4946522;28;20466;-70
2021/04/23 08:02:33;;;;;;;14.90;3.80;;;;;;;14.97;46.91;97406.69;4942036;28;20533;-69
2021/04/23 08:05:04;;;;;;;17.30;3.43;;;;;;;15.26;45.83;97391.66;4944175;28;20492;-70
2021/04/23 08:07:51;;;;;;;19.53;4.50;;;;;;;15.41;46.31;97399.34;4943320;28;20547;-70
2021/04/23 08:10:20;;;;;;;13.93;4.53;;;;;;;15.07;45.08;97397.31;4944567;28;20528;-71
2021/04/23 08:12:48;;;;;;;15.90;4.43;;;;;;;15.12;46.20;97410.09;4941762;28;20452;-71
2021/04/23 08:15:16;;;;;;;21.23;5.90;;;;;;;15.41;45.63;97403.75;4943531;28;20519;-70
2021/04/23 08:17:43;;;;;;;19.93;5.50;;;;;;;15.63;45.23;97401.34;4942038;28;21157;-71
2021/04/23 08:20:13;;;;;;;16.63;4.43;;;;;;;15.77;45.21;97403.88;4937599;28;20464;-71
2021/04/23 08:22:45;;;;;;;14.87;5.00;;;;;;;15.76;44.74;97400.38;4946975;28;20446;-70
2021/04/23 08:25:14;;;;;;;22.57;5.53;;;;;;;15.53;45.39;97402.94;4946277;28;21038;-71
2021/04/23 08:27:43;;;;;;;47.53;8.00;;;;;;;15.71;44.62;97404.28;4939670;28;20447;-70
2021/04/23 08:30:12;;;;;;;22.63;5.30;;;;;;;15.86;44.45;97409.31;4942691;28;21283;-70
2021/04/23 08:32:41;;;;;;;33.83;7.57;;;;;;;15.89;43.92;97409.09;4944988;28;20990;-71
2021/04/23 08:35:10;;;;;;;15.30;5.80;;;;;;;15.60;44.21;97412.91;4937759;28;20778;-71
2021/04/23 08:37:39;;;;;;;35.63;5.13;;;;;;;15.76;43.85;97413.50;4943259;28;20486;-71
2021/04/23 08:40:11;;;;;;;11.30;4.10;;;;;;;16.10;44.28;97409.38;4945994;28;21037;-70
2021/04/23 08:42:39;;;;;;;32.23;5.70;;;;;;;16.20;43.61;97399.91;4946471;28;20445;-69
2021/04/23 08:45:11;;;;;;;18.97;5.70;;;;;;;16.51;43.22;97402.03;4942670;28;20995;-71
2021/04/23 08:47:39;;;;;;;18.30;5.53;;;;;;;16.69;42.99;97411.19;4941269;28;20482;-69
2021/04/23 08:50:16;;;;;;;17.83;5.57;;;;;;;16.17;42.59;97411.47;4944781;28;20565;-72
2021/04/23 08:52:45;;;;;;;31.10;6.30;;;;;;;16.37;43.83;97405.66;4940520;28;20465;-69
2021/04/23 08:55:14;;;;;;;27.33;6.20;;;;;;;16.40;43.54;97400.16;4936901;28;20473;-71
2021/04/23 08:57:42;;;;;;;23.07;5.33;;;;;;;16.82;42.80;97404.09;4942818;28;20441;-69
2021/04/23 09:00:10;;;;;;;9.53;4.37;;;;;;;17.14;43.11;97406.00;4941039;28;20986;-73
2021/04/23 09:02:44;;;;;;;32.70;13.30;;;;;;;17.08;42.58;97405.63;4949343;28;20469;-71
2021/04/23 09:05:13;;;;;;;19.03;7.27;;;;;;;17.15;42.10;97402.41;4944855;28;21160;-72
2021/04/23 09:07:41;;;;;;;15.23;5.20;;;;;;;17.08;41.09;97403.81;4947749;28;20897;-69
2021/04/23 09:10:11;;;;;;;22.27;6.03;;;;;;;17.15;41.79;97404.22;4940332;28;21037;-69
2021/04/23 09:12:42;;;;;;;22.17;6.13;;;;;;;17.48;41.64;97406.00;4937521;28;21184;-71
2021/04/23 09:15:23;;;;;;;17.30;5.50;;;;;;;17.55;41.21;97411.66;4924793;28;20466;-71
2021/04/23 09:18:07;;;;;;;13.20;4.90;;;;;;;17.46;40.14;97408.88;4944859;28;20447;-70
2021/04/23 09:20:35;;;;;;;13.53;4.43;;;;;;;17.17;41.09;97402.31;4939769;28;20484;-70
2021/04/23 09:23:10;;;;;;;14.43;5.23;;;;;;;17.27;40.99;97401.50;4926824;28;20922;-70
2021/04/23 09:25:49;;;;;;;23.60;6.10;;;;;;;17.62;41.29;97403.16;4939324;28;20949;-71
2021/04/23 09:28:32;;;;;;;18.37;6.40;;;;;;;17.90;40.18;97405.31;4941642;28;20458;-70
2021/04/23 09:31:20;;;;;;;19.43;4.60;;;;;;;18.01;39.33;97404.50;4936275;28;20446;-71
2021/04/23 09:33:50;;;;;;;19.17;4.80;;;;;;;17.52;39.39;97405.78;4939034;28;20871;-70
2021/04/23 09:36:25;;;;;;;20.20;5.40;;;;;;;17.48;40.17;97398.09;4943319;28;20652;-72
2021/04/23 09:39:11;;;;;;;13.67;4.93;;;;;;;17.76;40.77;97402.91;4943268;28;21056;-70
2021/04/23 09:41:39;;;;;;;29.47;5.70;;;;;;;18.40;39.51;97402.19;4943232;28;20440;-70
2021/04/23 09:44:28;;;;;;;28.17;5.50;;;;;;;18.81;39.22;97394.44;4937557;28;20477;-71
2021/04/23 09:47:03;;;;;;;17.63;4.63;;;;;;;19.22;38.63;97394.50;4943611;28;20446;-70
2021/04/23 09:49:31;;;;;;;46.13;23.63;;;;;;;19.10;37.65;97398.09;4941198;28;20470;-69
2021/04/23 09:52:00;;;;;;;19.93;5.00;;;;;;;19.03;36.88;97396.97;4938774;28;20991;-70
2021/04/23 09:54:27;;;;;;;16.50;5.30;;;;;;;19.16;37.86;97400.25;4944266;28;20497;-69
2021/04/23 09:56:55;;;;;;;29.23;6.73;;;;;;;19.38;38.41;97397.50;4915948;28;20497;-72
2021/04/23 09:59:25;;;;;;;20.93;6.10;;;;;;;19.68;37.98;97396.75;4949683;28;20944;-72
2021/04/23 10:01:58;;;;;;;22.17;5.57;;;;;;;19.66;37.41;97381.00;4945580;28;21029;-73
2021/04/23 10:04:29;;;;;;;25.87;5.30;;;;;;;19.94;37.34;97393.53;4946854;28;20466;-73
2021/04/23 10:07:22;;;;;;;15.17;5.80;;;;;;;19.74;37.73;97402.31;4948658;28;20430;-73
2021/04/23 10:10:00;;;;;;;21.03;6.10;;;;;;;19.67;38.41;97395.88;4927415;28;20470;-73
2021/04/23 10:12:36;;;;;;;18.60;5.17;;;;;;;19.65;39.09;97391.69;4948527;28;21269;-72
2021/04/23 10:15:13;;;;;;;19.43;5.33;;;;;;;20.25;37.73;97392.56;4949362;28;20854;-73
2021/04/23 10:17:42;;;;;;;15.63;5.80;;;;;;;19.14;35.57;97391.63;4940212;28;20811;-73
2021/04/23 10:20:12;;;;;;;14.73;6.10;;;;;;;19.09;37.84;97398.25;4940358;28;20482;-73
2021/04/23 10:22:41;;;;;;;12.63;5.30;;;;;;;19.48;36.28;97395.78;4946090;28;20445;-73
2021/04/23 10:25:10;;;;;;;15.43;5.37;;;;;;;19.79;38.52;97389.56;4944657;28;20470;-73
2021/04/23 10:27:38;;;;;;;26.10;6.70;;;;;;;20.07;37.93;97399.47;4949523;28;20489;-73
2021/04/23 10:30:12;;;;;;;20.07;5.00;;;;;;;20.27;36.70;97374.75;4946008;28;20485;-73
2021/04/23 10:33:01;;;;;;;18.07;5.47;;;;;;;20.26;35.38;97362.50;4941298;28;20959;-74
2021/04/23 10:35:30;;;;;;;12.67;4.27;;;;;;;19.95;36.08;97371.41;4948309;28;20963;-71
2021/04/23 10:38:02;;;;;;;15.73;5.27;;;;;;;20.14;36.10;97389.19;4945644;28;20481;-73
2021/04/23 10:40:31;;;;;;;18.13;4.83;;;;;;;20.37;37.01;97383.56;4946217;28;20791;-72
2021/04/23 10:42:59;;;;;;;18.83;5.43;;;;;;;20.78;34.92;97393.91;4947080;28;20453;-73
2021/04/23 10:45:38;;;;;;;17.10;5.87;;;;;;;20.57;34.47;97393.22;4940146;28;20927;-74
2021/04/23 10:48:25;;;;;;;17.40;5.80;;;;;;;20.70;34.83;97388.47;4942666;28;20500;-73
2021/04/23 10:50:55;;;;;;;14.40;5.53;;;;;;;21.18;35.17;97389.38;4923924;28;20965;-71
2021/04/23 10:53:35;;;;;;;12.73;4.90;;;;;;;20.96;34.84;97392.31;4945045;28;20489;-74
2021/04/23 10:56:06;;;;;;;22.57;6.37;;;;;;;21.36;35.68;97387.66;4945057;28;20850;-73
2021/04/23 10:58:39;;;;;;;18.97;6.07;;;;;;;21.25;33.50;97382.53;4945045;28;20851;-72
2021/04/23 11:01:28;;;;;;;12.63;5.60;;;;;;;21.17;34.65;97386.84;4940866;28;20530;-74
2021/04/23 11:04:04;;;;;;;13.33;5.43;;;;;;;21.41;34.32;97385.44;4947303;28;20478;-72
2021/04/23 11:06:34;;;;;;;10.83;4.33;;;;;;;21.38;33.20;97385.75;4946862;28;20445;-73
2021/04/23 11:09:11;;;;;;;11.70;4.63;;;;;;;21.92;32.77;97391.19;4937758;28;21036;-73
2021/04/23 11:11:39;;;;;;;11.30;4.50;;;;;;;21.96;30.54;97382.00;4938475;28;20473;-73
2021/04/23 11:14:26;;;;;;;11.10;4.03;;;;;;;21.66;31.45;97384.84;4939031;28;20455;-71
2021/04/23 11:16:55;;;;;;;14.53;3.50;;;;;;;21.88;30.80;97373.09;4948645;28;20996;-72
2021/04/23 11:19:36;;;;;;;18.17;6.00;;;;;;;22.38;32.23;97377.88;4943117;28;20498;-72
2021/04/23 11:22:12;;;;;;;19.10;5.67;;;;;;;22.52;32.31;97375.59;4939252;28;20438;-73
2021/04/23 11:24:59;;;;;;;27.73;5.03;;;;;;;22.72;31.12;97373.63;4941027;28;20986;-73
2021/04/23 11:27:26;;;;;;;10.37;4.37;;;;;;;22.58;29.99;97368.84;4938583;28;20926;-73
2021/04/23 11:30:09;;;;;;;17.63;4.43;;;;;;;20.87;30.97;97357.88;4946100;28;20898;-72
2021/04/23 11:32:51;;;;;;;11.03;4.30;;;;;;;20.61;32.18;97359.38;4946519;28;20840;-73
2021/04/23 11:35:21;;;;;;;10.47;5.33;;;;;;;20.43;32.86;97359.22;4944129;28;20489;-73
2021/04/23 11:37:51;;;;;;;16.20;5.30;;;;;;;21.16;32.26;97364.84;4941046;28;20451;-73
2021/04/23 11:40:21;;;;;;;37.70;6.83;;;;;;;21.56;32.71;97362.00;4940120;28;20581;-73
2021/04/23 11:42:49;;;;;;;14.07;4.00;;;;;;;22.18;31.22;97360.41;4945993;28;20454;-74
2021/04/23 11:45:17;;;;;;;18.67;4.83;;;;;;;22.39;30.08;97345.88;4936141;28;20960;-73